createdAt,value
2024-02-01T00:00:56.397Z,23.04
2024-02-01T00:01:56.355Z,23.04
2024-02-01T00:02:56.453Z,23.04
2024-02-01T00:03:56.398Z,23.03
2024-02-01T00:04:56.442Z,23.03
2024-02-01T00:05:56.517Z,23.02
2024-02-01T00:06:56.569Z,23.03
2024-02-01T00:07:56.456Z,23.03
2024-02-01T00:08:56.524Z,23.02
2024-02-01T00:09:56.501Z,23.03
2024-02-01T00:10:56.517Z,23.02
2024-02-01T00:11:56.566Z,23.02
2024-02-01T00:12:56.549Z,23.02
2024-02-01T00:13:56.569Z,23.02
2024-02-01T00:14:56.640Z,23.01
2024-02-01T00:15:56.627Z,23.00
2024-02-01T00:16:56.637Z,23.00
2024-02-01T00:17:56.738Z,23.00
2024-02-01T00:18:56.782Z,23.00
2024-02-01T00:19:56.836Z,23.00
2024-02-01T00:20:56.786Z,23.01
2024-02-01T00:21:56.736Z,23.00
2024-02-01T00:22:56.774Z,23.01
2024-02-01T00:23:56.803Z,23.01
2024-02-01T00:24:56.829Z,23.01
2024-02-01T00:25:56.842Z,23.01
2024-02-01T00:26:56.898Z,23.01
2024-02-01T00:27:56.884Z,23.01
2024-02-01T00:28:56.897Z,23.02
2024-02-01T00:29:56.980Z,23.01
2024-02-01T00:30:56.979Z,23.01
2024-02-01T00:31:56.964Z,23.01
2024-02-01T00:32:57.208Z,23.02
2024-02-01T00:33:57.132Z,23.01
2024-02-01T00:34:57.107Z,23.02
2024-02-01T00:35:57.093Z,23.03
2024-02-01T00:36:57.107Z,23.02
2024-02-01T00:37:57.107Z,23.01
2024-02-01T00:38:57.171Z,23.01
2024-02-01T00:39:57.189Z,23.02
2024-02-01T00:40:57.210Z,23.01
2024-02-01T00:41:57.276Z,23.02
2024-02-01T00:42:57.272Z,23.03
2024-02-01T00:43:57.271Z,23.03
2024-02-01T00:44:57.335Z,23.03
2024-02-01T00:45:57.349Z,23.02
2024-02-01T00:46:57.397Z,23.02
2024-02-01T00:47:57.492Z,23.02
2024-02-01T00:48:57.515Z,23.02
2024-02-01T00:49:57.429Z,23.01
2024-02-01T00:50:57.537Z,23.01
2024-02-01T00:51:57.508Z,23.02
2024-02-01T00:52:57.527Z,23.03
2024-02-01T00:53:57.623Z,23.01
2024-02-01T00:54:57.601Z,23.01
2024-02-01T00:55:57.641Z,23.01
2024-02-01T00:56:57.685Z,23.01
2024-02-01T00:57:57.653Z,23.01
2024-02-01T00:58:57.680Z,23.01
2024-02-01T00:59:57.848Z,23.01
2024-02-01T01:00:57.871Z,23.01
2024-02-01T01:01:57.815Z,23.01
2024-02-01T01:02:57.820Z,23.01
2024-02-01T01:03:57.865Z,23.00
2024-02-01T01:04:57.889Z,23.00
2024-02-01T01:05:57.881Z,23.01
2024-02-01T01:06:57.861Z,23.00
2024-02-01T01:07:57.951Z,23.00
2024-02-01T01:08:57.993Z,23.00
2024-02-01T01:09:57.955Z,23.00
2024-02-01T01:10:57.974Z,22.99
2024-02-01T01:11:58.019Z,23.00
2024-02-01T01:12:58.017Z,22.99
2024-02-01T01:13:58.045Z,22.99
2024-02-01T01:14:58.093Z,22.99
2024-02-01T01:15:58.119Z,22.99
2024-02-01T01:16:58.119Z,22.99
2024-02-01T01:17:58.209Z,22.99
2024-02-01T01:18:58.265Z,23.00
2024-02-01T01:19:58.249Z,23.00
2024-02-01T01:20:58.281Z,22.99
2024-02-01T01:21:58.255Z,22.98
2024-02-01T01:22:58.276Z,22.98
2024-02-01T01:23:58.336Z,22.99
2024-02-01T01:24:58.320Z,22.99
2024-02-01T01:25:58.360Z,22.99
2024-02-01T01:26:58.396Z,22.98
2024-02-01T01:27:58.400Z,22.99
2024-02-01T01:28:58.426Z,22.99
2024-02-01T01:29:58.496Z,22.99
2024-02-01T01:30:58.494Z,22.98
2024-02-01T01:31:58.531Z,22.98
2024-02-01T01:32:58.709Z,22.98
2024-02-01T01:33:58.859Z,22.98
2024-02-01T01:34:58.714Z,22.97
2024-02-01T01:35:58.639Z,22.97
2024-02-01T01:36:58.644Z,22.98
2024-02-01T01:37:58.675Z,22.98
2024-02-01T01:38:58.733Z,22.97
2024-02-01T01:39:58.714Z,22.97
2024-02-01T01:40:58.752Z,22.98
2024-02-01T01:41:58.789Z,22.98
2024-02-01T01:42:58.808Z,22.98
2024-02-01T01:43:58.840Z,22.97
2024-02-01T01:44:58.865Z,22.97
2024-02-01T01:45:58.889Z,22.97
2024-02-01T01:46:58.909Z,22.97
2024-02-01T01:47:59.070Z,22.98
2024-02-01T01:48:59.052Z,22.98
2024-02-01T01:49:59.046Z,22.98
2024-02-01T01:50:59.091Z,22.98
2024-02-01T01:51:59.053Z,22.98
2024-02-01T01:52:59.110Z,22.98
2024-02-01T01:53:59.117Z,22.99
2024-02-01T01:54:59.144Z,22.99
2024-02-01T01:55:59.163Z,22.99
2024-02-01T01:56:59.217Z,22.99
2024-02-01T01:57:59.211Z,22.98
2024-02-01T01:58:59.235Z,22.98
2024-02-01T01:59:59.435Z,22.97
2024-02-01T02:00:59.465Z,22.97
2024-02-01T02:01:59.353Z,22.97
2024-02-01T02:03:00.577Z,22.96
2024-02-01T02:03:59.497Z,22.97
2024-02-01T02:04:59.431Z,22.96
2024-02-01T02:05:59.542Z,22.96
2024-02-01T02:06:59.573Z,22.96
2024-02-01T02:07:59.518Z,22.97
2024-02-01T02:08:59.610Z,22.96
2024-02-01T02:09:59.581Z,22.96
2024-02-01T02:10:59.614Z,22.95
2024-02-01T02:11:59.695Z,22.96
2024-02-01T02:12:59.673Z,22.96
2024-02-01T02:13:59.715Z,22.97
2024-02-01T02:14:59.758Z,22.97
2024-02-01T02:15:59.767Z,22.97
2024-02-01T02:16:59.910Z,22.97
2024-02-01T02:17:59.993Z,22.96
2024-02-01T02:18:59.941Z,22.97
2024-02-01T02:19:59.911Z,22.96
2024-02-01T02:20:59.888Z,22.97
2024-02-01T02:21:59.900Z,22.97
2024-02-01T02:22:59.917Z,22.97
2024-02-01T02:23:59.996Z,22.96
2024-02-01T02:24:59.964Z,22.96
2024-02-01T02:25:59.990Z,22.96
2024-02-01T02:27:00.042Z,22.96
2024-02-01T02:28:00.069Z,22.96
2024-02-01T02:29:00.063Z,22.95
2024-02-01T02:30:00.204Z,22.96
2024-02-01T02:31:00.124Z,22.95
2024-02-01T02:32:00.153Z,22.96
2024-02-01T02:33:00.250Z,22.96
2024-02-01T02:34:00.348Z,22.95
2024-02-01T02:35:00.227Z,22.95
2024-02-01T02:36:00.259Z,22.96
2024-02-01T02:37:00.273Z,22.96
2024-02-01T02:38:00.316Z,22.96
2024-02-01T02:39:00.396Z,22.95
2024-02-01T02:40:00.375Z,22.95
2024-02-01T02:41:00.387Z,22.95
2024-02-01T02:42:00.427Z,22.95
2024-02-01T02:43:00.424Z,22.95
2024-02-01T02:44:00.472Z,22.94
2024-02-01T02:45:00.523Z,22.94
2024-02-01T02:46:00.560Z,22.94
2024-02-01T02:47:00.514Z,22.94
2024-02-01T02:48:00.712Z,22.94
2024-02-01T02:49:00.883Z,22.94
2024-02-01T02:50:00.601Z,22.95
2024-02-01T02:51:00.666Z,22.95
2024-02-01T02:52:00.680Z,22.95
2024-02-01T02:53:00.691Z,22.95
2024-02-01T02:54:00.812Z,22.94
2024-02-01T02:55:00.754Z,22.94
2024-02-01T02:56:00.786Z,22.94
2024-02-01T02:57:00.851Z,22.95
2024-02-01T02:58:00.818Z,22.94
2024-02-01T02:59:00.883Z,22.94
2024-02-01T03:00:00.901Z,22.94
2024-02-01T03:01:00.974Z,22.95
2024-02-01T03:02:00.925Z,22.94
2024-02-01T03:03:01.012Z,22.94
2024-02-01T03:04:01.000Z,22.95
2024-02-01T03:05:01.018Z,22.94
2024-02-01T03:06:01.129Z,22.94
2024-02-01T03:07:01.066Z,22.95
2024-02-01T03:08:01.091Z,22.95
2024-02-01T03:09:01.123Z,22.95
2024-02-01T03:10:01.150Z,22.94
2024-02-01T03:11:01.151Z,22.95
2024-02-01T03:12:01.187Z,22.94
2024-02-01T03:13:01.181Z,22.95
2024-02-01T03:14:01.217Z,22.95
2024-02-01T03:15:01.330Z,22.94
2024-02-01T03:16:01.294Z,22.94
2024-02-01T03:17:01.306Z,22.94
2024-02-01T03:18:01.452Z,22.94
2024-02-01T03:19:01.542Z,22.93
2024-02-01T03:20:01.402Z,22.95
2024-02-01T03:21:01.440Z,22.94
2024-02-01T03:22:01.454Z,22.94
2024-02-01T03:23:01.510Z,22.93
2024-02-01T03:24:01.554Z,22.94
2024-02-01T03:25:01.889Z,22.94
2024-02-01T03:26:01.586Z,22.94
2024-02-01T03:27:01.654Z,22.94
2024-02-01T03:28:01.706Z,22.94
2024-02-01T03:29:01.666Z,22.94
2024-02-01T03:30:01.975Z,22.94
2024-02-01T03:31:01.742Z,22.94
2024-02-01T03:32:01.832Z,22.94
2024-02-01T03:33:01.894Z,22.94
2024-02-01T03:34:02.023Z,22.94
2024-02-01T03:35:01.933Z,22.94
2024-02-01T03:36:01.905Z,22.94
2024-02-01T03:37:01.918Z,22.94
2024-02-01T03:38:01.969Z,22.95
2024-02-01T03:39:02.002Z,22.95
2024-02-01T03:40:02.004Z,22.95
2024-02-01T03:41:02.022Z,22.95
2024-02-01T03:42:02.415Z,22.95
2024-02-01T03:43:02.090Z,22.94
2024-02-01T03:44:02.122Z,22.95
2024-02-01T03:45:02.222Z,22.95
2024-02-01T03:46:02.170Z,22.95
2024-02-01T03:47:02.219Z,22.94
2024-02-01T03:48:02.374Z,22.94
2024-02-01T03:49:02.356Z,22.94
2024-02-01T03:50:02.421Z,22.94
2024-02-01T03:51:02.401Z,22.95
2024-02-01T03:52:02.387Z,22.95
2024-02-01T03:53:02.400Z,22.95
2024-02-01T03:54:02.495Z,22.94
2024-02-01T03:55:02.481Z,22.95
2024-02-01T03:56:02.503Z,22.94
2024-02-01T03:57:02.577Z,22.94
2024-02-01T03:58:02.614Z,22.95
2024-02-01T03:59:02.600Z,22.95
2024-02-01T04:00:02.652Z,22.95
2024-02-01T04:01:02.783Z,22.95
2024-02-01T04:02:02.693Z,22.95
2024-02-01T04:03:02.758Z,22.96
2024-02-01T04:04:02.816Z,22.95
2024-02-01T04:05:02.790Z,22.95
2024-02-01T04:06:02.890Z,22.96
2024-02-01T04:07:03.038Z,22.95
2024-02-01T04:08:02.884Z,22.95
2024-02-01T04:09:02.936Z,22.95
2024-02-01T04:10:02.946Z,22.95
2024-02-01T04:11:02.979Z,22.94
2024-02-01T04:12:03.036Z,22.94
2024-02-01T04:13:03.030Z,22.95
2024-02-01T04:14:03.047Z,22.94
2024-02-01T04:15:03.111Z,22.95
2024-02-01T04:16:03.139Z,22.94
2024-02-01T04:17:03.145Z,22.95
2024-02-01T04:18:03.321Z,22.94
2024-02-01T04:19:04.510Z,22.94
2024-02-01T04:20:03.299Z,22.94
2024-02-01T04:21:03.346Z,22.93
2024-02-01T04:22:03.332Z,22.93
2024-02-01T04:23:03.464Z,22.93
2024-02-01T04:24:03.397Z,22.92
2024-02-01T04:25:03.405Z,22.92
2024-02-01T04:26:03.443Z,22.92
2024-02-01T04:27:10.828Z,22.89
2024-02-01T04:28:11.073Z,22.91
2024-02-01T04:29:10.771Z,22.92
2024-02-01T04:30:10.826Z,22.92
2024-02-01T04:31:18.022Z,22.89
2024-02-01T04:32:18.003Z,22.90
2024-02-01T04:33:18.079Z,22.90
2024-02-01T04:34:19.069Z,22.91
2024-02-01T04:35:18.014Z,22.91
2024-02-01T04:36:18.042Z,22.92
2024-02-01T04:37:17.998Z,22.91
2024-02-01T04:38:18.060Z,22.92
2024-02-01T04:39:18.126Z,22.92
2024-02-01T04:40:18.048Z,22.92
2024-02-01T04:41:18.023Z,22.91
2024-02-01T04:42:18.072Z,22.92
2024-02-01T04:43:18.018Z,22.91
2024-02-01T04:44:18.032Z,22.91
2024-02-01T04:45:18.125Z,22.91
2024-02-01T04:46:18.026Z,22.92
2024-02-01T04:47:18.018Z,22.91
2024-02-01T04:48:18.140Z,22.92
2024-02-01T04:49:18.244Z,22.90
2024-02-01T04:50:18.036Z,22.91
2024-02-01T04:51:18.030Z,22.91
2024-02-01T04:52:18.027Z,22.91
2024-02-01T04:53:18.030Z,22.91
2024-02-01T04:54:18.104Z,22.91
2024-02-01T04:55:18.031Z,22.90
2024-02-01T04:56:18.035Z,22.91
2024-02-01T04:57:18.071Z,22.91
2024-02-01T04:58:18.037Z,22.91
2024-02-01T04:59:18.034Z,22.90
2024-02-01T05:00:18.132Z,22.91
2024-02-01T05:01:18.155Z,22.91
2024-02-01T05:02:18.093Z,22.90
2024-02-01T05:03:18.393Z,22.90
2024-02-01T05:04:18.039Z,22.90
2024-02-01T05:05:18.081Z,22.89
2024-02-01T05:06:18.100Z,22.89
2024-02-01T05:07:18.084Z,22.89
2024-02-01T05:08:18.030Z,22.90
2024-02-01T05:09:18.066Z,22.91
2024-02-01T05:10:18.066Z,22.90
2024-02-01T05:11:18.047Z,22.89
2024-02-01T05:12:18.099Z,22.90
2024-02-01T05:13:18.071Z,22.90
2024-02-01T05:14:18.049Z,22.90
2024-02-01T05:15:18.182Z,22.90
2024-02-01T05:16:18.152Z,22.90
2024-02-01T05:17:18.155Z,22.89
2024-02-01T05:18:18.287Z,22.89
2024-02-01T05:19:18.472Z,22.89
2024-02-01T05:20:18.269Z,22.89
2024-02-01T05:21:18.437Z,22.89
2024-02-01T05:22:18.321Z,22.89
2024-02-01T05:23:18.338Z,22.88
2024-02-01T05:24:18.451Z,22.89
2024-02-01T05:25:18.419Z,22.88
2024-02-01T05:26:18.482Z,22.88
2024-02-01T05:27:18.551Z,22.88
2024-02-01T05:28:18.514Z,22.89
2024-02-01T05:29:18.540Z,22.89
2024-02-01T05:30:21.083Z,22.89
2024-02-01T05:31:18.567Z,22.89
2024-02-01T05:32:18.721Z,22.89
2024-02-01T05:33:18.628Z,22.89
2024-02-01T05:34:18.762Z,22.89
2024-02-01T05:35:18.590Z,22.90
2024-02-01T05:36:18.634Z,22.89
2024-02-01T05:37:18.582Z,22.89
2024-02-01T05:38:18.599Z,22.89
2024-02-01T05:39:18.631Z,22.89
2024-02-01T05:40:18.591Z,22.89
2024-02-01T05:41:18.600Z,22.88
2024-02-01T05:42:18.662Z,22.88
2024-02-01T05:43:18.592Z,22.89
2024-02-01T05:44:18.606Z,22.88
2024-02-01T05:45:18.640Z,22.88
2024-02-01T05:46:18.599Z,22.89
2024-02-01T05:47:18.612Z,22.89
2024-02-01T05:48:18.711Z,22.89
2024-02-01T05:49:18.707Z,22.88
2024-02-01T05:50:18.612Z,22.89
2024-02-01T05:51:18.638Z,22.89
2024-02-01T05:52:18.661Z,22.89
2024-02-01T05:53:18.603Z,22.90
2024-02-01T05:54:18.677Z,22.90
2024-02-01T05:55:18.604Z,22.90
2024-02-01T05:56:18.628Z,22.90
2024-02-01T05:57:18.745Z,22.90
2024-02-01T05:58:18.646Z,22.89
2024-02-01T05:59:18.598Z,22.89
2024-02-01T06:00:18.801Z,22.89
2024-02-01T06:01:18.945Z,22.89
2024-02-01T06:02:18.617Z,22.89
2024-02-01T06:03:18.707Z,22.88
2024-02-01T06:04:18.642Z,22.88
2024-02-01T06:05:18.623Z,22.88
2024-02-01T06:06:18.806Z,22.88
2024-02-01T06:07:18.692Z,22.87
2024-02-01T06:08:18.632Z,22.86
2024-02-01T06:09:18.754Z,22.88
2024-02-01T06:10:18.638Z,22.88
2024-02-01T06:11:18.627Z,22.89
2024-02-01T06:12:18.795Z,22.88
2024-02-01T06:13:18.647Z,22.89
2024-02-01T06:14:18.683Z,22.89
2024-02-01T06:15:18.775Z,22.89
2024-02-01T06:16:18.643Z,22.88
2024-02-01T06:17:18.671Z,22.89
2024-02-01T06:18:18.789Z,22.89
2024-02-01T06:19:18.773Z,22.89
2024-02-01T06:20:18.655Z,22.91
2024-02-01T06:21:18.762Z,22.92
2024-02-01T06:22:18.638Z,22.92
2024-02-01T06:23:18.638Z,22.93
2024-02-01T06:24:18.810Z,22.94
2024-02-01T06:25:18.648Z,22.94
2024-02-01T06:26:18.656Z,22.95
2024-02-01T06:27:18.768Z,22.96
2024-02-01T06:28:18.658Z,22.96
2024-02-01T06:29:18.664Z,22.97
2024-02-01T06:30:18.752Z,22.99
2024-02-01T06:31:18.660Z,23.02
2024-02-01T06:32:18.668Z,23.04
2024-02-01T06:33:18.742Z,23.07
2024-02-01T06:34:18.702Z,23.08
2024-02-01T06:35:19.584Z,23.09
2024-02-01T06:36:19.186Z,23.11
2024-02-01T06:37:18.693Z,23.13
2024-02-01T06:38:18.659Z,23.17
2024-02-01T06:39:19.038Z,23.20
2024-02-01T06:40:18.757Z,23.23
2024-02-01T06:41:18.761Z,23.27
2024-02-01T06:42:18.854Z,23.30
2024-02-01T06:43:18.951Z,23.32
2024-02-01T06:44:18.668Z,23.33
2024-02-01T06:45:18.808Z,23.33
2024-02-01T06:46:18.683Z,23.33
2024-02-01T06:47:18.687Z,23.33
2024-02-01T06:48:18.773Z,23.33
2024-02-01T06:49:18.766Z,23.31
2024-02-01T06:50:18.729Z,23.31
2024-02-01T06:51:19.293Z,23.30
2024-02-01T06:52:18.833Z,23.29
2024-02-01T06:53:18.704Z,23.28
2024-02-01T06:54:18.757Z,23.28
2024-02-01T06:55:18.692Z,23.28
2024-02-01T06:56:18.715Z,23.27
2024-02-01T06:57:18.736Z,23.27
2024-02-01T06:58:18.696Z,23.25
2024-02-01T06:59:18.763Z,23.24
2024-02-01T07:00:18.740Z,23.22
2024-02-01T07:01:18.712Z,23.22
2024-02-01T07:02:18.691Z,23.21
2024-02-01T07:03:18.781Z,23.20
2024-02-01T07:04:19.041Z,23.18
2024-02-01T07:05:18.747Z,23.17
2024-02-01T07:06:18.822Z,23.16
2024-02-01T07:07:19.096Z,23.14
2024-02-01T07:08:18.777Z,23.13
2024-02-01T07:09:18.980Z,23.12
2024-02-01T07:10:18.789Z,23.11
2024-02-01T07:11:18.808Z,23.10
2024-02-01T07:12:19.032Z,23.09
2024-02-01T07:13:18.867Z,23.08
2024-02-01T07:14:18.893Z,23.09
2024-02-01T07:15:18.946Z,23.08
2024-02-01T07:16:18.909Z,23.08
2024-02-01T07:17:18.984Z,23.08
2024-02-01T07:18:19.019Z,23.08
2024-02-01T07:19:19.140Z,23.07
2024-02-01T07:20:18.970Z,23.07
2024-02-01T07:21:19.057Z,23.07
2024-02-01T07:22:19.187Z,23.07
2024-02-01T07:23:19.045Z,23.07
2024-02-01T07:24:19.325Z,23.06
2024-02-01T07:25:19.105Z,23.06
2024-02-01T07:26:19.524Z,23.05
2024-02-01T07:27:19.162Z,23.05
2024-02-01T07:28:19.156Z,23.05
2024-02-01T07:29:19.171Z,23.06
2024-02-01T07:30:19.242Z,23.07
2024-02-01T07:31:19.703Z,23.08
2024-02-01T07:32:19.229Z,23.09
2024-02-01T07:33:19.354Z,23.09
2024-02-01T07:34:19.398Z,23.13
2024-02-01T07:35:19.336Z,23.17
2024-02-01T07:36:19.778Z,23.21
2024-02-01T07:37:19.355Z,23.24
2024-02-01T07:38:19.405Z,23.24
2024-02-01T07:39:19.440Z,23.21
2024-02-01T07:40:19.405Z,23.16
2024-02-01T07:41:19.689Z,23.10
2024-02-01T07:42:19.607Z,22.98
2024-02-01T07:43:19.511Z,22.75
2024-02-01T07:44:19.566Z,22.46
2024-02-01T07:45:19.769Z,22.18
2024-02-01T07:46:19.657Z,22.10
2024-02-01T07:47:19.690Z,22.07
2024-02-01T07:48:19.775Z,22.07
2024-02-01T07:49:19.791Z,22.04
2024-02-01T07:50:19.730Z,22.07
2024-02-01T07:51:19.823Z,22.08
2024-02-01T07:52:19.735Z,22.07
2024-02-01T07:53:19.725Z,22.08
2024-02-01T07:54:19.825Z,22.09
2024-02-01T07:55:19.734Z,22.13
2024-02-01T07:56:20.238Z,22.14
2024-02-01T07:57:19.865Z,22.16
2024-02-01T07:58:19.772Z,22.17
2024-02-01T07:59:19.833Z,22.17
2024-02-01T08:00:19.962Z,22.19
2024-02-01T08:01:20.090Z,22.25
2024-02-01T08:02:19.799Z,22.30
2024-02-01T08:03:19.906Z,22.34
2024-02-01T08:04:19.972Z,22.40
2024-02-01T08:05:19.995Z,22.46
2024-02-01T08:06:20.318Z,22.52
2024-02-01T08:07:20.257Z,22.58
2024-02-01T08:08:20.162Z,22.64
2024-02-01T08:09:20.269Z,22.71
2024-02-01T08:10:20.549Z,22.77
2024-02-01T08:11:23.093Z,22.83
2024-02-01T08:12:20.843Z,22.89
2024-02-01T08:13:20.284Z,22.96
2024-02-01T08:14:20.282Z,23.00
2024-02-01T08:15:20.426Z,23.06
2024-02-01T08:16:20.290Z,23.09
2024-02-01T08:17:20.310Z,23.15
2024-02-01T08:18:20.353Z,23.20
2024-02-01T08:19:29.084Z,23.23
2024-02-01T08:20:21.354Z,23.26
2024-02-01T08:21:20.363Z,23.31
2024-02-01T08:22:20.297Z,23.34
2024-02-01T08:23:20.395Z,23.39
2024-02-01T08:24:20.385Z,23.43
2024-02-01T08:25:20.301Z,23.45
2024-02-01T08:26:20.722Z,23.48
2024-02-01T08:27:20.431Z,23.54
2024-02-01T08:28:20.311Z,23.58
2024-02-01T08:29:20.304Z,23.61
2024-02-01T08:30:20.350Z,23.67
2024-02-01T08:31:20.727Z,23.72
2024-02-01T08:32:20.302Z,23.75
2024-02-01T08:33:20.528Z,23.78
2024-02-01T08:34:20.453Z,23.81
2024-02-01T08:35:20.481Z,23.84
2024-02-01T08:36:20.536Z,23.86
2024-02-01T08:37:20.541Z,23.88
2024-02-01T08:38:20.611Z,23.90
2024-02-01T08:39:20.823Z,23.91
2024-02-01T08:40:20.731Z,23.93
2024-02-01T08:41:20.839Z,23.95
2024-02-01T08:42:20.882Z,23.96
2024-02-01T08:43:20.888Z,23.97
2024-02-01T08:44:20.937Z,23.98
2024-02-01T08:45:21.014Z,24.00
2024-02-01T08:46:21.056Z,24.01
2024-02-01T08:47:21.090Z,24.01
2024-02-01T08:48:21.231Z,24.04
2024-02-01T08:49:21.227Z,24.06
2024-02-01T08:50:21.256Z,24.07
2024-02-01T08:51:21.340Z,24.08
2024-02-01T08:52:21.351Z,24.09
2024-02-01T08:53:21.356Z,24.11
2024-02-01T08:54:21.524Z,24.13
2024-02-01T08:55:21.517Z,24.15
2024-02-01T08:56:21.532Z,24.17
2024-02-01T08:57:21.570Z,24.19
2024-02-01T08:58:21.611Z,24.21
2024-02-01T08:59:21.635Z,24.22
2024-02-01T09:00:21.817Z,24.23
2024-02-01T09:01:21.791Z,24.25
2024-02-01T09:02:21.784Z,24.26
2024-02-01T09:03:21.949Z,24.27
2024-02-01T09:04:21.921Z,24.28
2024-02-01T09:05:22.075Z,24.28
2024-02-01T09:06:22.373Z,24.29
2024-02-01T09:07:22.330Z,24.29
2024-02-01T09:08:22.045Z,24.30
2024-02-01T09:09:22.161Z,24.31
2024-02-01T09:10:22.115Z,24.32
2024-02-01T09:11:22.183Z,24.32
2024-02-01T09:12:22.269Z,24.34
2024-02-01T09:13:22.287Z,24.35
2024-02-01T09:14:22.293Z,24.36
2024-02-01T09:15:22.351Z,24.38
2024-02-01T09:16:22.394Z,24.39
2024-02-01T09:17:22.415Z,24.39
2024-02-01T09:18:22.540Z,24.41
2024-02-01T09:19:22.786Z,24.43
2024-02-01T09:20:22.575Z,24.46
2024-02-01T09:21:22.763Z,24.48
2024-02-01T09:22:22.609Z,24.49
2024-02-01T09:23:22.651Z,24.49
2024-02-01T09:24:22.812Z,24.50
2024-02-01T09:25:22.717Z,24.50
2024-02-01T09:26:22.784Z,24.49
2024-02-01T09:27:22.824Z,24.50
2024-02-01T09:28:22.846Z,24.52
2024-02-01T09:29:22.869Z,24.54
2024-02-01T09:30:22.962Z,24.56
2024-02-01T09:31:23.167Z,24.61
2024-02-01T09:32:22.989Z,24.63
2024-02-01T09:33:23.158Z,24.64
2024-02-01T09:34:23.224Z,24.60
2024-02-01T09:35:23.108Z,24.58
2024-02-01T09:36:23.379Z,24.54
2024-02-01T09:37:25.005Z,24.50
2024-02-01T09:38:23.288Z,24.50
2024-02-01T09:39:23.345Z,24.50
2024-02-01T09:40:23.372Z,24.50
2024-02-01T09:41:23.775Z,24.50
2024-02-01T09:42:23.845Z,24.51
2024-02-01T09:43:23.580Z,24.51
2024-02-01T09:44:23.505Z,24.51
2024-02-01T09:45:23.572Z,24.51
2024-02-01T09:46:23.577Z,24.52
2024-02-01T09:47:23.641Z,24.53
2024-02-01T09:48:23.766Z,24.54
2024-02-01T09:49:28.382Z,24.55
2024-02-01T09:50:24.786Z,24.54
2024-02-01T09:51:23.782Z,24.55
2024-02-01T09:52:23.751Z,24.56
2024-02-01T09:53:23.717Z,24.57
2024-02-01T09:54:23.770Z,24.57
2024-02-01T09:55:23.708Z,24.58
2024-02-01T09:56:23.698Z,24.59
2024-02-01T09:57:23.778Z,24.59
2024-02-01T09:58:23.743Z,24.60
2024-02-01T09:59:23.738Z,24.62
2024-02-01T10:00:24.020Z,24.63
2024-02-01T10:01:23.734Z,24.65
2024-02-01T10:02:23.704Z,24.66
2024-02-01T10:03:23.804Z,24.66
2024-02-01T10:04:24.661Z,24.68
2024-02-01T10:05:23.734Z,24.70
2024-02-01T10:06:23.863Z,24.72
2024-02-01T10:07:23.832Z,24.74
2024-02-01T10:08:23.748Z,24.76
2024-02-01T10:09:24.628Z,24.79
2024-02-01T10:10:23.720Z,24.81
2024-02-01T10:11:23.723Z,24.83
2024-02-01T10:12:23.755Z,24.86
2024-02-01T10:13:23.715Z,24.89
2024-02-01T10:14:23.713Z,24.92
2024-02-01T10:15:23.792Z,24.95
2024-02-01T10:16:23.733Z,24.96
2024-02-01T10:17:23.731Z,24.97
2024-02-01T10:18:23.830Z,24.99
2024-02-01T10:19:23.894Z,25.01
2024-02-01T10:20:23.752Z,25.01
2024-02-01T10:21:29.763Z,25.02
2024-02-01T10:22:24.745Z,25.04
2024-02-01T10:23:23.757Z,25.05
2024-02-01T10:24:23.850Z,25.06
2024-02-01T10:25:23.849Z,25.08
2024-02-01T10:26:23.764Z,25.08
2024-02-01T10:27:25.202Z,25.06
2024-02-01T10:28:23.765Z,25.07
2024-02-01T10:29:23.740Z,25.06
2024-02-01T10:30:23.862Z,25.05
2024-02-01T10:31:23.805Z,25.07
2024-02-01T10:32:23.784Z,25.06
2024-02-01T10:33:25.582Z,25.00
2024-02-01T10:34:23.977Z,24.91
2024-02-01T10:35:23.854Z,24.81
2024-02-01T10:36:23.959Z,24.71
2024-02-01T10:37:23.796Z,24.68
2024-02-01T10:38:23.768Z,24.67
2024-02-01T10:39:23.928Z,24.68
2024-02-01T10:40:23.769Z,24.70
2024-02-01T10:41:23.776Z,24.73
2024-02-01T10:42:23.916Z,24.76
2024-02-01T10:43:23.754Z,24.80
2024-02-01T10:44:23.768Z,24.84
2024-02-01T10:45:23.853Z,24.88
2024-02-01T10:46:24.308Z,24.92
2024-02-01T10:47:23.842Z,24.94
2024-02-01T10:48:23.940Z,24.98
2024-02-01T10:49:23.955Z,25.00
2024-02-01T10:50:23.774Z,25.03
2024-02-01T10:51:23.809Z,25.07
2024-02-01T10:52:23.784Z,25.10
2024-02-01T10:53:23.775Z,25.12
2024-02-01T10:54:24.042Z,25.13
2024-02-01T10:55:23.853Z,25.15
2024-02-01T10:56:23.779Z,25.18
2024-02-01T10:57:24.295Z,25.22
2024-02-01T10:58:23.781Z,25.23
2024-02-01T10:59:23.805Z,25.25
2024-02-01T11:00:23.923Z,25.25
2024-02-01T11:01:23.885Z,25.26
2024-02-01T11:02:23.791Z,25.26
2024-02-01T11:03:23.899Z,25.30
2024-02-01T11:04:23.855Z,25.33
2024-02-01T11:05:23.812Z,25.35
2024-02-01T11:06:23.859Z,25.35
2024-02-01T11:07:23.808Z,25.36
2024-02-01T11:08:23.792Z,25.38
2024-02-01T11:09:26.405Z,25.41
2024-02-01T11:10:23.842Z,25.40
2024-02-01T11:11:23.853Z,25.41
2024-02-01T11:12:23.953Z,25.41
2024-02-01T11:13:23.798Z,25.41
2024-02-01T11:14:23.808Z,25.42
2024-02-01T11:15:25.942Z,25.44
2024-02-01T11:16:23.811Z,25.43
2024-02-01T11:17:24.306Z,25.42
2024-02-01T11:18:24.090Z,25.41
2024-02-01T11:19:24.084Z,25.38
2024-02-01T11:20:23.824Z,25.35
2024-02-01T11:21:24.304Z,25.31
2024-02-01T11:22:24.289Z,25.25
2024-02-01T11:23:23.826Z,25.26
2024-02-01T11:24:23.826Z,25.26
2024-02-01T11:25:23.840Z,25.27
2024-02-01T11:26:24.280Z,25.27
2024-02-01T11:27:23.986Z,25.30
2024-02-01T11:28:23.848Z,25.31
2024-02-01T11:29:23.841Z,25.32
2024-02-01T11:30:23.870Z,25.33
2024-02-01T11:31:30.572Z,25.34
2024-02-01T11:32:24.924Z,25.35
2024-02-01T11:33:24.020Z,25.36
2024-02-01T11:34:24.177Z,25.37
2024-02-01T11:35:24.180Z,25.39
2024-02-01T11:36:24.180Z,25.40
2024-02-01T11:37:27.562Z,25.41
2024-02-01T11:38:25.188Z,25.42
2024-02-01T11:39:24.195Z,25.43
2024-02-01T11:40:24.173Z,25.44
2024-02-01T11:41:24.257Z,25.43
2024-02-01T11:42:31.426Z,25.44
2024-02-01T11:43:25.188Z,25.42
2024-02-01T11:44:24.193Z,25.44
2024-02-01T11:45:24.277Z,25.44
2024-02-01T11:46:24.184Z,25.45
2024-02-01T11:47:24.334Z,25.45
2024-02-01T11:48:24.292Z,25.47
2024-02-01T11:49:26.166Z,25.48
2024-02-01T11:50:24.186Z,25.50
2024-02-01T11:51:24.228Z,25.51
2024-02-01T11:52:24.196Z,25.51
2024-02-01T11:53:24.200Z,25.51
2024-02-01T11:54:24.225Z,25.53
2024-02-01T11:55:26.402Z,25.55
2024-02-01T11:56:24.214Z,25.56
2024-02-01T11:57:24.248Z,25.56
2024-02-01T11:58:24.211Z,25.55
2024-02-01T11:59:24.215Z,25.54
2024-02-01T12:00:33.130Z,25.56
2024-02-01T12:01:27.245Z,25.57
2024-02-01T12:02:24.224Z,25.59
2024-02-01T12:03:24.217Z,25.60
2024-02-01T12:04:24.256Z,25.59
2024-02-01T12:05:24.208Z,25.58
2024-02-01T12:06:24.629Z,25.58
2024-02-01T12:07:24.478Z,25.60
2024-02-01T12:08:24.297Z,25.60
2024-02-01T12:09:24.260Z,25.61
2024-02-01T12:10:24.218Z,25.62
2024-02-01T12:11:24.263Z,25.61
2024-02-01T12:12:24.504Z,25.61
2024-02-01T12:13:24.226Z,25.56
2024-02-01T12:14:24.246Z,25.53
2024-02-01T12:15:24.267Z,25.51
2024-02-01T12:16:24.245Z,25.49
2024-02-01T12:17:24.304Z,25.47
2024-02-01T12:18:24.419Z,25.43
2024-02-01T12:19:24.434Z,25.40
2024-02-01T12:20:24.436Z,25.37
2024-02-01T12:21:24.514Z,25.33
2024-02-01T12:22:24.590Z,25.30
2024-02-01T12:23:24.641Z,25.27
2024-02-01T12:24:24.714Z,25.24
2024-02-01T12:25:24.796Z,25.23
2024-02-01T12:26:25.597Z,25.21
2024-02-01T12:27:24.942Z,25.19
2024-02-01T12:28:24.944Z,25.18
2024-02-01T12:29:24.974Z,25.16
2024-02-01T12:30:25.071Z,25.14
2024-02-01T12:31:25.067Z,25.13
2024-02-01T12:32:25.081Z,25.11
2024-02-01T12:33:25.220Z,25.10
2024-02-01T12:34:25.294Z,25.07
2024-02-01T12:35:25.217Z,25.06
2024-02-01T12:36:25.319Z,25.05
2024-02-01T12:37:25.304Z,25.03
2024-02-01T12:38:25.344Z,25.02
2024-02-01T12:39:25.395Z,24.99
2024-02-01T12:40:25.411Z,24.98
2024-02-01T12:41:25.403Z,24.96
2024-02-01T12:42:25.508Z,24.94
2024-02-01T12:43:25.600Z,24.93
2024-02-01T12:44:25.429Z,24.92
2024-02-01T12:45:25.460Z,24.90
2024-02-01T12:46:25.658Z,24.89
2024-02-01T12:47:25.442Z,24.88
2024-02-01T12:48:25.568Z,24.86
2024-02-01T12:49:25.712Z,24.86
2024-02-01T12:50:25.463Z,24.85
2024-02-01T12:51:25.506Z,24.84
2024-02-01T12:52:25.501Z,24.82
2024-02-01T12:53:25.490Z,24.81